Time;durP1;ratioP1;P1;durP2;ratioP2;P2;SDS_P1;SDS_P2;PMS_P1;PMS_P2;Temp;Humidity;BMP_temperature;BMP_pressure;BME280_temperature;BME280_humidity;BME280_pressure;Samples;Min_cycle;Max_cycle;Signal;HPM_P1;HPM_P2
2022/03/09 00:02:01;;;;;;;6.27;5.03;;;;;;;4.32;40.09;101809.78;4972211;28;20510;-82
2022/03/09 00:04:29;;;;;;;10.23;5.25;;;;;;;5.35;39.83;101948.13;4989802;28;20050;-84
2022/03/09 00:06:55;;;;;;;6.22;5.20;;;;;;;5.47;39.67;101965.16;4988498;28;20566;-84
2022/03/09 00:09:24;;;;;;;6.82;5.03;;;;;;;5.27;40.21;101966.06;4972957;28;20053;-84
2022/03/09 00:11:52;;;;;;;6.35;5.60;;;;;;;4.30;40.51;101806.38;4988961;28;20141;-83
2022/03/09 00:14:29;;;;;;;8.87;5.70;;;;;;;4.70;39.89;101883.50;4973368;28;20133;-82
2022/03/09 00:17:02;;;;;;;7.15;5.63;;;;;;;4.09;40.21;101791.50;4973213;28;20074;-83
2022/03/09 00:19:29;;;;;;;12.10;5.40;;;;;;;5.26;40.65;102014.38;4972882;28;20130;-83
2022/03/09 00:21:56;;;;;;;11.20;5.20;;;;;;;3.50;40.88;101714.31;4990072;28;20042;-83
2022/03/09 00:24:27;;;;;;;5.90;5.30;;;;;;;4.59;40.38;101899.78;4972717;28;20061;-84
2022/03/09 00:26:53;;;;;;;6.97;5.57;;;;;;;4.99;39.63;101970.84;4972875;28;20089;-82
2022/03/09 00:29:20;;;;;;;13.43;5.87;;;;;;;4.17;40.35;101839.34;4990219;28;20056;-83
2022/03/09 00:31:47;;;;;;;7.00;5.27;;;;;;;4.60;40.10;101913.78;4981498;28;20210;-84
2022/03/09 00:34:14;;;;;;;6.00;5.40;;;;;;;5.14;40.26;102009.66;5004491;28;20124;-84
2022/03/09 00:36:41;;;;;;;5.77;4.93;;;;;;;5.07;40.41;101989.78;5007404;28;20081;-84
2022/03/09 00:39:07;;;;;;;9.47;5.53;;;;;;;5.06;40.89;102006.50;5003965;28;20042;-83
2022/03/09 00:41:34;;;;;;;6.33;5.17;;;;;;;4.96;40.99;101995.53;4993996;28;20403;-82
2022/03/09 00:44:01;;;;;;;5.88;5.28;;;;;;;5.16;40.11;102028.88;4974728;28;20089;-83
2022/03/09 00:46:28;;;;;;;7.20;5.17;;;;;;;4.15;40.69;101834.16;4976450;28;20057;-82
2022/03/09 00:48:55;;;;;;;8.50;5.27;;;;;;;3.58;40.62;101744.56;4977846;28;20121;-84
2022/03/09 00:51:22;;;;;;;9.40;6.20;;;;;;;5.09;40.61;102006.38;4997678;28;20109;-83
2022/03/09 00:53:49;;;;;;;7.67;5.93;;;;;;;4.86;41.39;101958.22;4972457;28;20069;-84
2022/03/09 00:56:16;;;;;;;5.93;5.03;;;;;;;4.70;42.16;101941.38;4986267;28;20050;-85
2022/03/09 00:58:42;;;;;;;6.80;6.10;;;;;;;4.76;41.68;101945.50;4987793;28;20054;-85
2022/03/09 01:01:10;;;;;;;6.47;5.30;;;;;;;5.11;41.35;102018.53;4987977;28;20375;-85
2022/03/09 01:03:39;;;;;;;5.87;5.27;;;;;;;4.54;42.39;101930.69;4987726;28;20073;-85
2022/03/09 01:06:06;;;;;;;5.67;5.10;;;;;;;4.72;40.85;101966.69;4971660;28;20544;-84
2022/03/09 01:08:34;;;;;;;7.67;6.07;;;;;;;4.58;42.37;101932.22;4988886;28;20057;-82
2022/03/09 01:11:01;;;;;;;6.83;5.70;;;;;;;4.84;42.29;101975.84;4972492;28;20145;-83
2022/03/09 01:13:27;;;;;;;7.10;5.53;;;;;;;4.93;43.09;101991.25;4971759;28;20054;-84
2022/03/09 01:15:54;;;;;;;6.97;5.80;;;;;;;4.76;43.02;101958.66;4987217;28;20053;-84
2022/03/09 01:18:21;;;;;;;9.30;5.70;;;;;;;4.07;42.66;101862.53;4970995;28;20330;-83
2022/03/09 01:20:48;;;;;;;8.27;5.73;;;;;;;4.91;41.96;102008.88;4971522;28;20249;-84
2022/03/09 01:23:15;;;;;;;7.50;6.17;;;;;;;4.27;42.88;101890.59;4971280;28;20136;-84
2022/03/09 01:25:41;;;;;;;6.73;5.90;;;;;;;3.29;42.22;101731.78;4988659;28;20148;-83
2022/03/09 01:28:08;;;;;;;7.13;6.43;;;;;;;3.89;42.69;101830.00;4988213;28;20105;-83
2022/03/09 01:30:34;;;;;;;7.57;5.77;;;;;;;4.41;42.90;101924.22;4988170;28;20050;-85
2022/03/09 01:33:01;;;;;;;6.77;6.07;;;;;;;4.71;42.53;101980.78;4970990;28;20526;-84
2022/03/09 01:35:28;;;;;;;7.60;6.77;;;;;;;4.78;42.94;101991.03;4970621;28;20109;-83
2022/03/09 01:37:54;;;;;;;11.40;7.00;;;;;;;4.34;43.36;101922.75;4987158;28;20386;-84
2022/03/09 01:40:21;;;;;;;10.50;6.63;;;;;;;3.98;43.75;101878.66;4970810;28;20054;-84
2022/03/09 01:42:50;;;;;;;7.57;6.63;;;;;;;4.54;43.91;101985.03;4987060;28;20054;-84
2022/03/09 01:45:20;;;;;;;8.17;7.10;;;;;;;4.54;43.57;101971.88;4988376;28;20058;-84
2022/03/09 01:47:48;;;;;;;7.47;6.33;;;;;;;3.57;43.68;101818.19;4970924;28;20299;-83
2022/03/09 01:50:15;;;;;;;8.50;6.57;;;;;;;4.32;43.62;101919.31;4970421;28;20492;-84
2022/03/09 01:52:43;;;;;;;7.40;6.70;;;;;;;4.67;44.01;101988.88;4970780;28;20050;-83
2022/03/09 01:55:10;;;;;;;6.40;5.60;;;;;;;4.31;43.71;101902.69;4970990;28;20399;-84
2022/03/09 01:57:37;;;;;;;6.83;6.13;;;;;;;4.67;44.57;101962.56;4970544;28;20446;-84
2022/03/09 02:00:05;;;;;;;7.03;6.03;;;;;;;4.84;43.51;101970.59;4970635;28;20125;-84
2022/03/09 02:02:32;;;;;;;6.30;5.63;;;;;;;4.85;43.07;101961.75;4970165;28;20057;-84
2022/03/09 02:04:59;;;;;;;8.03;5.37;;;;;;;4.77;43.61;101955.13;4970771;28;20062;-84
2022/03/09 02:10:13;;;;;;;17.07;5.90;;;;;;;4.51;44.01;101925.53;4987309;28;20488;-84
2022/03/09 02:12:40;;;;;;;6.20;5.60;;;;;;;4.73;44.37;101985.97;4970091;28;20141;-84
2022/03/09 02:15:08;;;;;;;6.70;5.97;;;;;;;3.56;43.31;101796.28;4970499;28;20050;-84
2022/03/09 02:17:35;;;;;;;9.03;6.50;;;;;;;3.10;44.32;101727.28;4969988;28;20054;-83
2022/03/09 02:20:04;;;;;;;7.13;6.43;;;;;;;3.82;43.71;101860.91;4987176;28;20408;-85
2022/03/09 02:22:43;;;;;;;9.63;6.87;;;;;;;3.82;43.23;101883.69;4969920;28;20100;-84
2022/03/09 02:25:13;;;;;;;7.63;6.40;;;;;;;3.15;44.38;101767.31;4970077;28;20050;-83
2022/03/09 02:27:40;;;;;;;8.77;6.60;;;;;;;4.47;43.92;101971.31;4970224;28;20144;-83
2022/03/09 02:30:10;;;;;;;9.50;7.47;;;;;;;4.54;44.36;101995.53;4969822;28;20287;-84
2022/03/09 02:32:45;;;;;;;8.10;6.87;;;;;;;4.55;44.07;101994.66;4969948;28;20078;-85
2022/03/09 02:35:13;;;;;;;8.63;7.53;;;;;;;4.55;43.87;101989.38;4969783;28;20145;-84
2022/03/09 02:37:41;;;;;;;11.03;6.57;;;;;;;4.46;44.45;101980.94;4970236;28;20054;-83
2022/03/09 02:40:12;;;;;;;8.50;7.07;;;;;;;4.47;45.02;101987.94;4987148;28;20394;-84
2022/03/09 02:42:40;;;;;;;9.83;7.00;;;;;;;4.20;44.94;101932.09;4969971;28;20050;-84
2022/03/09 02:45:10;;;;;;;10.10;6.87;;;;;;;4.58;45.26;101994.50;4969986;28;20069;-83
2022/03/09 02:47:41;;;;;;;9.93;7.27;;;;;;;4.43;45.35;101970.56;4969680;28;20054;-82
2022/03/09 02:50:10;;;;;;;8.43;7.20;;;;;;;4.64;45.37;101989.00;4970347;28;20420;-83
2022/03/09 02:52:40;;;;;;;9.80;7.23;;;;;;;3.52;46.20;101810.50;4969925;28;20050;-84
2022/03/09 02:55:11;;;;;;;11.53;7.23;;;;;;;4.36;45.19;101955.94;4970500;28;20109;-84
2022/03/09 02:57:38;;;;;;;8.23;6.83;;;;;;;4.35;46.21;101949.00;4971305;28;20061;-84
2022/03/09 03:00:07;;;;;;;11.30;7.50;;;;;;;4.19;45.08;101929.50;4972270;28;20077;-83
2022/03/09 03:02:36;;;;;;;10.03;7.80;;;;;;;4.62;46.15;101996.94;4989470;28;20050;-83
2022/03/09 03:05:03;;;;;;;9.07;7.70;;;;;;;4.56;45.25;101968.25;4972343;28;20046;-83
2022/03/09 03:07:29;;;;;;;8.70;7.80;;;;;;;4.49;46.32;101964.19;4971443;28;20050;-85
2022/03/09 03:09:59;;;;;;;9.13;7.17;;;;;;;4.65;45.38;101993.34;4970358;28;20042;-83
2022/03/09 03:12:26;;;;;;;11.00;7.83;;;;;;;3.96;46.30;101886.63;4969536;28;20046;-83
2022/03/09 03:14:52;;;;;;;9.50;7.23;;;;;;;3.27;46.39;101800.09;4969892;28;20414;-84
2022/03/09 03:17:19;;;;;;;8.10;7.30;;;;;;;3.25;44.50;101798.44;4986069;28;20453;-84
2022/03/09 03:19:46;;;;;;;8.13;7.20;;;;;;;3.53;45.93;101859.44;4986134;28;20055;-83
2022/03/09 03:22:13;;;;;;;10.50;7.30;;;;;;;3.76;45.74;101897.06;4970391;28;20050;-83
2022/03/09 03:24:40;;;;;;;18.73;8.43;;;;;;;4.20;45.21;101960.13;4972407;28;20085;-83
2022/03/09 03:27:06;;;;;;;23.47;9.03;;;;;;;4.12;46.26;101965.69;4970659;28;20162;-84
2022/03/09 03:29:33;;;;;;;17.27;8.97;;;;;;;4.34;45.95;101991.97;4969348;28;20144;-83
2022/03/09 03:32:00;;;;;;;11.27;8.27;;;;;;;4.38;46.20;101997.97;4987188;28;20726;-83
2022/03/09 03:34:26;;;;;;;15.60;8.40;;;;;;;4.40;46.10;101981.22;4986438;28;20645;-83
2022/03/09 03:36:53;;;;;;;13.00;8.30;;;;;;;4.28;45.30;101923.88;4968979;28;20527;-84
2022/03/09 03:39:20;;;;;;;15.17;8.50;;;;;;;4.56;45.19;101980.56;4968778;28;20411;-84
2022/03/09 03:41:47;;;;;;;10.90;8.00;;;;;;;4.50;45.37;101966.75;4969259;28;20062;-83
2022/03/09 03:44:14;;;;;;;12.07;8.80;;;;;;;3.99;46.04;101912.78;4986246;28;20058;-84
2022/03/09 03:46:41;;;;;;;9.20;7.77;;;;;;;3.68;45.31;101871.09;4968999;28;20065;-83
2022/03/09 03:49:07;;;;;;;9.23;8.13;;;;;;;2.89;46.40;101754.34;4968596;28;20452;-83
2022/03/09 03:51:34;;;;;;;10.93;8.47;;;;;;;4.07;46.26;101957.97;4986363;28;20050;-83
2022/03/09 03:54:01;;;;;;;11.33;7.93;;;;;;;4.14;45.51;101970.91;4968684;28;20412;-83
2022/03/09 03:56:28;;;;;;;9.00;7.83;;;;;;;4.28;46.34;102003.59;4985964;28;20097;-84
2022/03/09 03:58:57;;;;;;;9.37;7.27;;;;;;;3.25;45.88;101835.19;4969469;28;20046;-83
2022/03/09 04:01:24;;;;;;;9.03;7.43;;;;;;;4.23;45.55;101995.03;4973844;28;20141;-84
2022/03/09 04:03:51;;;;;;;9.50;8.00;;;;;;;4.36;45.41;102008.53;4977746;28;20054;-83
2022/03/09 04:06:18;;;;;;;10.73;7.50;;;;;;;3.97;46.34;101945.28;4973280;28;20066;-83
2022/03/09 04:08:44;;;;;;;11.37;7.77;;;;;;;4.28;46.32;102023.78;4971046;28;20054;-84
2022/03/09 04:11:11;;;;;;;10.43;7.73;;;;;;;4.21;46.12;101999.50;4988703;28;20677;-83
2022/03/09 04:13:38;;;;;;;10.83;7.53;;;;;;;4.15;45.80;101996.25;4969432;28;20046;-83
2022/03/09 04:16:05;;;;;;;10.37;7.47;;;;;;;2.47;45.87;101726.22;4986723;28;20058;-83
2022/03/09 04:18:32;;;;;;;9.57;7.60;;;;;;;3.79;46.28;101946.88;4984754;28;20086;-83
2022/03/09 04:20:59;;;;;;;8.57;7.47;;;;;;;3.95;45.63;101974.22;4985775;28;20058;-84
2022/03/09 04:23:26;;;;;;;9.93;8.20;;;;;;;2.52;45.81;101732.13;4968910;28;20055;-82
2022/03/09 04:25:52;;;;;;;13.63;7.97;;;;;;;3.67;45.71;101905.34;4968936;28;20093;-83
2022/03/09 04:28:19;;;;;;;8.87;7.87;;;;;;;3.98;46.07;101968.88;4968573;28;20439;-84
2022/03/09 04:30:46;;;;;;;9.20;7.43;;;;;;;4.29;46.29;102009.69;4987574;28;20567;-84
2022/03/09 04:33:15;;;;;;;10.73;7.83;;;;;;;3.82;45.86;101941.50;4988403;28;20196;-84
2022/03/09 04:35:42;;;;;;;12.33;8.70;;;;;;;4.56;44.71;102012.13;4988067;28;20062;-84
2022/03/09 04:38:08;;;;;;;9.40;7.40;;;;;;;3.06;45.79;101782.53;4989360;28;20296;-84
2022/03/09 04:40:35;;;;;;;13.00;8.13;;;;;;;4.03;45.70;101951.16;4971636;28;20563;-84
2022/03/09 04:43:02;;;;;;;12.87;7.97;;;;;;;3.74;46.97;101920.78;4989381;28;20467;-84
2022/03/09 04:45:28;;;;;;;13.93;8.60;;;;;;;4.29;45.76;102009.69;4988273;28;20141;-85
2022/03/09 04:47:55;;;;;;;9.77;8.47;;;;;;;3.58;46.00;101891.63;4988896;28;20130;-82
2022/03/09 04:50:22;;;;;;;9.87;7.40;;;;;;;3.91;46.00;101956.91;4989021;28;20538;-84
2022/03/09 04:52:48;;;;;;;9.23;8.10;;;;;;;3.95;45.87;101963.72;4987693;28;20149;-83
2022/03/09 04:55:15;;;;;;;10.13;7.63;;;;;;;4.25;46.16;102023.91;4987821;28;20567;-83
2022/03/09 04:57:42;;;;;;;11.23;8.63;;;;;;;2.48;46.16;101728.78;4971415;28;20137;-84
2022/03/09 05:00:10;;;;;;;15.57;9.40;;;;;;;4.26;46.18;102025.59;4971793;28;20168;-84
2022/03/09 05:02:36;;;;;;;9.43;7.70;;;;;;;4.28;46.90;102023.78;4971414;28;20051;-83
2022/03/09 05:05:04;;;;;;;10.47;9.07;;;;;;;4.16;45.49;101987.47;4989381;28;20108;-83
2022/03/09 05:07:31;;;;;;;12.53;9.00;;;;;;;3.87;44.59;101910.63;4987715;28;20050;-83
2022/03/09 05:09:58;;;;;;;10.23;8.17;;;;;;;4.47;45.12;102014.22;4972342;28;20112;-83
2022/03/09 05:12:25;;;;;;;10.87;8.37;;;;;;;4.42;44.30;101995.16;4989550;28;20369;-83
2022/03/09 05:14:51;;;;;;;11.27;8.30;;;;;;;4.44;45.64;102027.50;4985825;28;20052;-83
2022/03/09 05:17:18;;;;;;;11.23;8.63;;;;;;;4.31;44.98;102012.28;4973258;28;20102;-83
2022/03/09 05:19:44;;;;;;;10.90;8.17;;;;;;;4.19;45.60;102006.59;4989662;28;20047;-84
2022/03/09 05:22:11;;;;;;;9.20;8.20;;;;;;;3.93;45.19;101981.34;4991563;28;20491;-84
2022/03/09 05:24:45;;;;;;;16.77;8.87;;;;;;;3.37;46.25;101908.19;4974987;28;20046;-84
2022/03/09 05:27:12;;;;;;;14.70;8.20;;;;;;;4.04;46.04;102010.66;4971170;28;20129;-85
2022/03/09 05:29:39;;;;;;;11.03;9.27;;;;;;;4.11;46.04;102020.97;4971004;28;20054;-84
2022/03/09 05:32:06;;;;;;;9.87;8.53;;;;;;;3.48;45.95;101924.41;4987915;28;20057;-84
2022/03/09 05:34:33;;;;;;;10.40;8.60;;;;;;;4.11;46.18;102037.56;4987917;28;20250;-84
2022/03/09 05:37:00;;;;;;;14.60;9.57;;;;;;;3.85;46.36;102002.63;4970980;28;20054;-84
2022/03/09 05:39:26;;;;;;;9.93;8.30;;;;;;;3.76;46.21;101978.50;4970884;28;20128;-83
2022/03/09 05:41:53;;;;;;;14.00;9.37;;;;;;;3.57;46.66;101952.09;4987028;28;20420;-84
2022/03/09 05:44:19;;;;;;;10.57;9.23;;;;;;;3.92;46.22;102021.66;4987925;28;20576;-84
2022/03/09 05:46:46;;;;;;;11.23;9.00;;;;;;;3.69;45.67;101984.91;4970702;28;20105;-84
2022/03/09 05:49:13;;;;;;;12.97;9.27;;;;;;;4.04;46.03;102044.84;4970355;28;20054;-84
2022/03/09 05:51:42;;;;;;;12.40;8.93;;;;;;;3.34;46.18;101939.81;4988160;28;20168;-84
2022/03/09 05:54:09;;;;;;;10.77;8.77;;;;;;;3.05;46.13;101878.78;4970472;28;20113;-83
2022/03/09 05:56:36;;;;;;;10.50;8.93;;;;;;;4.06;46.75;102052.66;4987937;28;20503;-84
2022/03/09 05:59:02;;;;;;;11.70;9.10;;;;;;;4.06;46.53;102060.56;4970390;28;20137;-84
2022/03/09 06:01:29;;;;;;;14.97;10.13;;;;;;;4.06;46.45;102061.41;4970392;28;20077;-85
2022/03/09 06:03:59;;;;;;;17.17;12.70;;;;;;;2.91;46.73;101868.81;4970355;28;20168;-84
2022/03/09 06:06:25;;;;;;;12.50;9.63;;;;;;;3.42;45.80;101943.00;4970173;28;20141;-84
2022/03/09 06:08:52;;;;;;;17.90;10.33;;;;;;;3.84;46.17;102007.97;4972572;28;20046;-84
2022/03/09 06:11:19;;;;;;;11.27;9.23;;;;;;;4.24;46.16;102069.50;4989891;28;20125;-83
2022/03/09 06:13:45;;;;;;;18.50;9.93;;;;;;;4.28;45.85;102077.19;4991665;28;20118;-82
2022/03/09 06:16:12;;;;;;;14.27;9.43;;;;;;;4.02;46.38;102019.53;4972634;28;20193;-82
2022/03/09 06:18:39;;;;;;;12.87;10.63;;;;;;;4.24;46.64;102053.72;4971335;28;20050;-84
2022/03/09 06:21:05;;;;;;;15.70;9.37;;;;;;;4.42;46.70;102079.31;4970854;28;20117;-83
2022/03/09 06:23:32;;;;;;;15.03;10.30;;;;;;;4.57;46.07;102076.97;4987415;28;20085;-84
2022/03/09 06:25:59;;;;;;;14.73;9.90;;;;;;;4.57;46.39;102071.72;4970975;28;20077;-83
2022/03/09 06:28:27;;;;;;;17.10;11.40;;;;;;;4.29;46.15;102033.34;4986902;28;20545;-83
2022/03/09 06:30:55;;;;;;;21.30;10.63;;;;;;;4.30;46.21;102045.59;4987901;28;20050;-84
2022/03/09 06:33:24;;;;;;;12.20;9.93;;;;;;;4.35;46.19;102059.41;4966736;28;20062;-82
2022/03/09 06:35:50;;;;;;;14.90;11.10;;;;;;;3.66;45.97;101935.97;5000053;28;20089;-83
2022/03/09 06:38:17;;;;;;;12.83;10.10;;;;;;;4.46;45.59;102075.59;4969834;28;20639;-82
2022/03/09 06:40:48;;;;;;;19.83;9.80;;;;;;;4.61;45.83;102094.31;4969862;28;20058;-82
2022/03/09 06:43:15;;;;;;;11.73;10.30;;;;;;;3.92;45.43;101979.63;4969232;28;20058;-82
2022/03/09 06:45:45;;;;;;;13.77;9.77;;;;;;;4.71;45.68;102108.84;4969867;28;20046;-83
2022/03/09 06:48:12;;;;;;;15.03;10.50;;;;;;;4.24;45.19;102036.16;4986656;28;20495;-82
2022/03/09 06:50:39;;;;;;;11.40;9.90;;;;;;;4.64;45.67;102102.13;4986958;28;20062;-81
2022/03/09 06:53:06;;;;;;;16.07;10.90;;;;;;;4.73;45.25;102107.00;4969163;28;20496;-84
2022/03/09 06:55:33;;;;;;;12.93;10.80;;;;;;;4.40;45.08;102053.97;4968640;28;20113;-84
2022/03/09 06:57:59;;;;;;;13.53;10.13;;;;;;;4.76;44.49;102106.88;4968397;28;20057;-84
2022/03/09 07:00:26;;;;;;;15.47;10.10;;;;;;;4.77;44.86;102100.69;4985389;28;20108;-82
2022/03/09 07:02:55;;;;;;;15.87;11.20;;;;;;;5.09;44.24;102145.88;4967399;28;20280;-83
2022/03/09 07:05:32;;;;;;;14.73;9.87;;;;;;;3.62;44.52;101872.22;4971217;28;20050;-83
2022/03/09 07:08:00;;;;;;;13.20;9.70;;;;;;;5.31;44.30;102133.53;4969957;28;20137;-83
2022/03/09 07:10:27;;;;;;;12.57;9.70;;;;;;;4.28;44.44;101940.50;4973013;28;20109;-83
2022/03/09 07:12:54;;;;;;;12.70;10.73;;;;;;;5.50;44.49;102133.59;4985918;28;20050;-84
2022/03/09 07:15:21;;;;;;;14.70;10.77;;;;;;;4.85;43.75;102003.88;4965530;28;20479;-84
2022/03/09 07:17:48;;;;;;;15.17;11.50;;;;;;;5.60;44.01;102107.72;4968068;28;20065;-84
2022/03/09 07:20:15;;;;;;;13.27;11.17;;;;;;;4.74;44.07;101952.66;4993612;28;20543;-84
2022/03/09 07:22:43;;;;;;;13.77;11.30;;;;;;;5.84;42.92;102112.81;4977086;28;20077;-85
2022/03/09 07:25:11;;;;;;;16.43;11.60;;;;;;;5.22;42.91;101994.41;4974793;28;20054;-84
2022/03/09 07:27:38;;;;;;;16.50;11.47;;;;;;;5.93;42.94;102089.53;4987369;28;20456;-84
2022/03/09 07:30:07;;;;;;;15.77;11.80;;;;;;;6.12;41.28;102105.41;4988274;28;20393;-83
2022/03/09 07:32:34;;;;;;;16.00;12.00;;;;;;;6.23;41.52;102104.06;4974018;28;20053;-83
2022/03/09 07:35:21;;;;;;;17.23;11.43;;;;;;;6.44;40.88;102128.56;4977633;28;20050;-83
2022/03/09 07:37:50;;;;;;;13.87;11.07;;;;;;;6.04;41.27;102054.78;4991975;28;20469;-85
2022/03/09 07:40:17;;;;;;;15.02;11.43;;;;;;;6.39;40.33;102082.16;4990085;28;20133;-83
2022/03/09 07:42:44;;;;;;;16.33;12.17;;;;;;;6.90;40.23;102135.13;4974018;28;20577;-79
2022/03/09 07:45:10;;;;;;;13.13;10.77;;;;;;;7.05;39.75;102139.66;4968235;28;20457;-83
2022/03/09 07:47:37;;;;;;;14.50;11.40;;;;;;;6.95;39.40;102133.13;4969734;28;20057;-79
2022/03/09 07:50:07;;;;;;;14.97;10.87;;;;;;;6.85;39.50;102121.31;4985648;28;20085;-80
2022/03/09 07:52:34;;;;;;;16.90;11.88;;;;;;;7.09;38.68;102145.66;4970136;28;20062;-80
2022/03/09 07:55:05;;;;;;;13.60;10.57;;;;;;;6.83;39.30;102128.44;4986779;28;20112;-80
2022/03/09 07:57:32;;;;;;;14.47;11.90;;;;;;;6.83;39.13;102128.44;4969845;28;20133;-79
2022/03/09 08:00:00;;;;;;;14.73;10.80;;;;;;;7.04;38.98;102151.16;4987602;28;20136;-79
2022/03/09 08:02:28;;;;;;;19.95;12.00;;;;;;;6.85;39.48;102148.56;4988432;28;20059;-83
2022/03/09 08:04:56;;;;;;;14.18;12.05;;;;;;;6.73;39.23;102103.44;4974650;28;20054;-81
2022/03/09 08:07:23;;;;;;;22.40;12.65;;;;;;;6.88;39.27;102134.34;4976439;28;20082;-81
2022/03/09 08:09:50;;;;;;;13.73;11.60;;;;;;;6.95;39.15;102148.09;4975874;28;20054;-80
2022/03/09 08:12:18;;;;;;;14.40;12.10;;;;;;;7.10;39.34;102151.78;4975290;28;20060;-80
2022/03/09 08:14:46;;;;;;;15.33;12.13;;;;;;;5.95;39.94;101965.63;4959286;28;20046;-82
2022/03/09 08:17:14;;;;;;;16.63;12.70;;;;;;;6.57;39.83;102058.44;4975215;28;20519;-80
2022/03/09 08:19:44;;;;;;;15.00;12.80;;;;;;;6.53;39.32;102026.09;4959476;28;20053;-82
2022/03/09 08:22:14;;;;;;;18.70;12.47;;;;;;;5.63;38.88;101857.31;4992891;28;20058;-83
2022/03/09 08:24:54;;;;;;;17.30;12.97;;;;;;;5.97;39.18;101911.03;4974475;28;20056;-83
2022/03/09 08:27:21;;;;;;;16.80;12.57;;;;;;;6.15;39.90;101944.41;4955241;28;20055;-82
2022/03/09 08:30:00;;;;;;;17.17;13.73;;;;;;;5.89;39.43;101898.19;4990341;28;20089;-82
2022/03/09 08:32:29;;;;;;;17.05;13.65;;;;;;;7.36;38.88;102116.97;4975396;28;20062;-82
2022/03/09 08:34:56;;;;;;;18.53;14.93;;;;;;;7.41;38.97;102122.88;4975149;28;20085;-82
2022/03/09 08:37:24;;;;;;;18.00;14.47;;;;;;;6.20;39.06;101902.84;4992846;28;20140;-81
2022/03/09 08:39:51;;;;;;;26.63;14.67;;;;;;;7.24;38.89;102075.34;4992687;28;20055;-81
2022/03/09 08:42:18;;;;;;;20.77;14.43;;;;;;;7.45;39.39;102132.38;4974457;28;20169;-80
2022/03/09 08:44:45;;;;;;;15.48;13.45;;;;;;;7.45;39.77;102132.38;4973978;28;20108;-81
2022/03/09 08:47:11;;;;;;;14.93;13.25;;;;;;;7.28;39.58;102079.50;4974141;28;20128;-82
2022/03/09 08:49:41;;;;;;;15.67;13.40;;;;;;;6.79;39.53;101992.25;4973964;28;20598;-81
2022/03/09 08:52:10;;;;;;;18.25;14.38;;;;;;;6.14;39.78;101887.34;4972240;28;20043;-84
2022/03/09 08:54:40;;;;;;;24.00;14.13;;;;;;;6.05;39.57;101868.50;4967611;28;20457;-81
2022/03/09 08:57:07;;;;;;;21.90;14.63;;;;;;;6.02;39.97;101842.25;4966949;28;20064;-81
2022/03/09 08:59:35;;;;;;;18.70;14.20;;;;;;;6.09;39.76;101838.38;4974074;28;20046;-81
2022/03/09 09:02:02;;;;;;;20.75;14.27;;;;;;;7.27;39.77;102027.63;4973659;28;20058;-81
2022/03/09 09:04:29;;;;;;;18.60;14.77;;;;;;;7.15;39.71;101994.78;4974790;28;20078;-80
2022/03/09 09:06:57;;;;;;;18.95;14.32;;;;;;;8.04;39.98;102143.38;4974056;28;20065;-82
2022/03/09 09:09:24;;;;;;;23.75;15.73;;;;;;;8.16;39.80;102123.34;4991007;28;20046;-80
2022/03/09 09:11:55;;;;;;;20.38;15.18;;;;;;;7.05;40.14;101946.03;4973844;28;20101;-80
2022/03/09 09:14:26;;;;;;;19.75;14.77;;;;;;;7.74;39.67;102036.59;4990514;28;20050;-81
2022/03/09 09:16:53;;;;;;;18.10;14.98;;;;;;;7.40;39.98;101967.94;4972095;28;20054;-81
2022/03/09 09:19:20;;;;;;;17.98;14.32;;;;;;;8.30;39.46;102099.63;4972563;28;20056;-82
2022/03/09 09:21:47;;;;;;;19.33;14.70;;;;;;;8.51;39.03;102099.38;4972786;28;20054;-82
2022/03/09 09:24:14;;;;;;;18.23;15.80;;;;;;;8.61;38.58;102071.44;4989722;28;20403;-81
2022/03/09 09:26:43;;;;;;;24.48;15.93;;;;;;;8.05;38.58;101972.31;4972827;28;20051;-80
2022/03/09 09:29:15;;;;;;;20.40;16.63;;;;;;;9.04;38.08;102106.03;4988542;28;20092;-81
2022/03/09 09:31:45;;;;;;;20.45;16.27;;;;;;;9.04;38.02;102090.16;4990691;28;20050;-82
2022/03/09 09:34:12;;;;;;;22.92;16.67;;;;;;;8.56;37.83;101983.50;4973332;28;20053;-82
2022/03/09 09:36:41;;;;;;;22.25;17.17;;;;;;;8.96;36.83;102021.75;4973273;28;20046;-83
2022/03/09 09:39:08;;;;;;;23.08;18.20;;;;;;;9.51;37.57;102089.09;4973511;28;20100;-82
2022/03/09 09:41:36;;;;;;;21.50;17.33;;;;;;;9.77;37.04;102111.38;4973880;28;20060;-83
2022/03/09 09:44:04;;;;;;;21.17;16.98;;;;;;;9.85;36.74;102100.28;4991396;28;20050;-83
2022/03/09 09:46:31;;;;;;;21.92;17.55;;;;;;;10.02;36.57;102094.81;4973802;28;20137;-82
2022/03/09 09:48:58;;;;;;;24.88;17.70;;;;;;;9.82;36.40;102044.78;4990616;28;20129;-83
2022/03/09 09:51:29;;;;;;;25.02;19.17;;;;;;;10.43;35.53;102109.91;4976049;28;20062;-82
2022/03/09 09:53:56;;;;;;;26.25;19.70;;;;;;;10.49;35.61;102114.00;4994484;28;20047;-81
2022/03/09 09:56:23;;;;;;;22.08;18.42;;;;;;;10.55;36.01;102091.50;4978024;28;20396;-80
2022/03/09 09:58:53;;;;;;;22.38;18.10;;;;;;;10.72;35.70;102108.97;4995132;28;20055;-80
2022/03/09 10:01:20;;;;;;;22.17;18.98;;;;;;;10.10;34.82;101982.88;4977600;28;20504;-79
2022/03/09 10:03:47;;;;;;;24.15;19.63;;;;;;;10.97;35.29;102097.56;4998166;28;20428;-80
2022/03/09 10:06:13;;;;;;;29.73;19.50;;;;;;;10.82;34.16;102036.53;4973246;28;20202;-79
2022/03/09 10:08:40;;;;;;;28.42;19.55;;;;;;;11.28;34.41;102102.53;4989460;28;20046;-80
2022/03/09 10:11:07;;;;;;;23.08;19.27;;;;;;;11.18;34.14;102072.22;4972296;28;20050;-80
2022/03/09 10:13:38;;;;;;;25.10;20.35;;;;;;;11.44;34.03;102097.03;4971734;28;20145;-82
2022/03/09 10:16:07;;;;;;;23.23;18.67;;;;;;;11.57;34.35;102090.84;4971761;28;20126;-81
2022/03/09 10:18:35;;;;;;;24.05;19.70;;;;;;;10.71;34.21;101935.50;4971723;28;20054;-81
2022/03/09 10:21:13;;;;;;;24.23;18.65;;;;;;;11.53;33.43;102051.19;4971997;28;20172;-81
2022/03/09 10:23:53;;;;;;;25.70;19.35;;;;;;;11.99;32.75;102065.72;4989008;28;20551;-81
2022/03/09 10:26:27;;;;;;;22.70;19.40;;;;;;;12.00;32.61;102072.75;4988665;28;20078;-80
2022/03/09 10:28:59;;;;;;;23.30;19.23;;;;;;;12.11;32.20;102079.94;4989252;28;20129;-82
2022/03/09 10:31:38;;;;;;;23.05;17.77;;;;;;;12.32;31.83;102086.38;4971527;28;20054;-81
2022/03/09 10:34:17;;;;;;;22.25;19.23;;;;;;;12.46;32.22;102082.72;4971996;28;20077;-81
2022/03/09 10:37:08;;;;;;;22.90;17.80;;;;;;;12.58;30.94;102055.19;4970994;28;20104;-81
2022/03/09 10:39:38;;;;;;;24.33;18.05;;;;;;;12.84;30.42;102073.72;4970699;28;20556;-81
2022/03/09 10:42:23;;;;;;;20.85;17.80;;;;;;;12.42;31.23;101993.34;4972010;28;20058;-80
2022/03/09 10:44:50;;;;;;;21.05;18.00;;;;;;;12.22;31.27;101943.41;4971274;28;20084;-81
2022/03/09 10:47:32;;;;;;;23.23;19.63;;;;;;;13.14;31.28;102073.19;4971652;28;20348;-81
2022/03/09 10:50:08;;;;;;;23.10;18.93;;;;;;;13.00;31.12;102026.25;4971847;28;20248;-81
2022/03/09 10:52:48;;;;;;;20.40;18.20;;;;;;;13.48;30.18;102056.44;4971598;28;20311;-81
2022/03/09 10:55:41;;;;;;;22.67;18.25;;;;;;;13.60;29.62;102058.97;4971173;28;20077;-82
2022/03/09 10:58:15;;;;;;;25.42;18.63;;;;;;;12.80;30.24;101899.84;4970825;28;20274;-81
2022/03/09 11:00:55;;;;;;;20.83;16.98;;;;;;;12.84;30.19;101887.16;4970183;28;20054;-82
2022/03/09 11:03:33;;;;;;;20.67;17.40;;;;;;;12.81;29.08;101866.91;4985038;28;20447;-82
2022/03/09 11:06:14;;;;;;;24.83;18.30;;;;;;;12.63;28.54;101830.22;4984933;28;20096;-81
2022/03/09 11:08:43;;;;;;;24.67;19.63;;;;;;;12.86;28.95;101841.72;4987635;28;20448;-82
2022/03/09 11:11:20;;;;;;;23.13;19.35;;;;;;;13.70;29.82;101949.69;4972506;28;20065;-82
2022/03/09 11:13:48;;;;;;;24.15;17.40;;;;;;;13.48;29.48;101870.53;4973165;28;20109;-78
2022/03/09 11:16:17;;;;;;;23.17;18.67;;;;;;;14.62;28.36;102038.31;4975329;28;20046;-82
2022/03/09 11:18:45;;;;;;;21.77;18.65;;;;;;;14.60;27.99;102029.56;4971627;28;20080;-82
2022/03/09 11:21:14;;;;;;;21.23;17.65;;;;;;;14.70;28.23;102024.31;4970353;28;20485;-81
2022/03/09 11:23:41;;;;;;;23.60;17.83;;;;;;;14.82;27.73;102033.13;4969830;28;20488;-82
2022/03/09 11:26:07;;;;;;;19.88;16.77;;;;;;;14.95;27.83;102023.06;4986981;28;20050;-82
2022/03/09 11:28:37;;;;;;;21.58;17.60;;;;;;;14.90;27.84;101999.44;4986755;28;20201;-81
2022/03/09 11:31:17;;;;;;;22.30;18.27;;;;;;;14.93;27.29;101977.75;4969069;28;20567;-81